Аэропорт: Ульяновск-Восточный. Ульяновск

ICAO: UWLW

METAR:
2020-08-09 23:00:00
UWLW 092300Z 36005MPS 8000 NSC 17/12 Q1007 R02/////// NOSIG RMK QFE749
METAR:
2020-08-09 19:50:00
TAF UWLW 091950Z 0921/1021 35005G11MPS 8000 SCT033 TX21/1011Z TN13/1001Z TEMPO 0921/1015 32008G14MPS